Time;durP1;ratioP1;P1;durP2;ratioP2;P2;SDS_P1;SDS_P2;PMS_P1;PMS_P2;Temp;Humidity;BMP_temperature;BMP_pressure;BME280_temperature;BME280_humidity;BME280_pressure;Samples;Min_cycle;Max_cycle;Signal;HPM_P1;HPM_P2
2024/04/15 00:00:12;;;;;;;12.27;1.47;;;;;;;;;;5416066;26;20472;-84
2024/04/15 00:02:38;;;;;;;6.00;0.87;;;;;;;;;;5389711;26;20462;-90
2024/04/15 00:05:04;;;;;;;7.83;1.13;;;;;;;;;;5385533;26;20497;-86
2024/04/15 00:07:32;;;;;;;9.40;1.00;;;;;;;;;;5420580;26;20468;-92
2024/04/15 00:09:57;;;;;;;11.37;2.50;;;;;;;;;;5422046;26;20441;-87
2024/04/15 00:12:23;;;;;;;6.07;1.07;;;;;;;;;;5421199;26;20500;-84
2024/04/15 00:14:49;;;;;;;8.20;1.57;;;;;;;;;;5417814;26;20576;-89
2024/04/15 00:17:15;;;;;;;6.70;1.37;;;;;;;;;;5420571;26;20936;-86
2024/04/15 00:19:41;;;;;;;6.43;0.80;;;;;;;;;;5421427;26;20447;-88
2024/04/15 00:22:08;;;;;;;11.30;1.20;;;;;;;;;;5421007;26;20463;-89
2024/04/15 00:24:34;;;;;;;8.87;1.10;;;;;;;;;;5419703;26;20444;-85
2024/04/15 00:27:00;;;;;;;5.03;0.63;;;;;;;;;;5421085;26;20491;-86
2024/04/15 00:29:26;;;;;;;6.93;1.40;;;;;;;;;;5420864;26;20437;-82
2024/04/15 00:31:52;;;;;;;8.63;1.60;;;;;;;;;;5394533;26;20458;-82
2024/04/15 00:34:19;;;;;;;10.53;0.77;;;;;;;;;;5414354;26;20453;-81
2024/04/15 00:36:45;;;;;;;10.00;1.00;;;;;;;;;;5416524;26;20838;-82
2024/04/15 00:39:11;;;;;;;7.90;0.97;;;;;;;;;;5419037;26;20566;-82
2024/04/15 00:41:37;;;;;;;8.70;1.73;;;;;;;;;;5419146;26;20444;-82
2024/04/15 00:44:03;;;;;;;4.43;1.23;;;;;;;;;;5418736;26;20801;-82
2024/04/15 00:46:30;;;;;;;10.87;1.17;;;;;;;;;;5418842;26;21043;-82
2024/04/15 00:48:56;;;;;;;9.03;0.83;;;;;;;;;;5418677;26;20960;-82
2024/04/15 00:51:22;;;;;;;7.00;1.23;;;;;;;;;;5418467;26;20558;-83
2024/04/15 00:53:50;;;;;;;7.83;1.07;;;;;;;;;;5416732;26;20440;-82
2024/04/15 00:56:17;;;;;;;5.33;1.00;;;;;;;;;;5419407;26;20444;-83
2024/04/15 00:58:44;;;;;;;5.30;0.80;;;;;;;;;;5418797;26;20576;-83
2024/04/15 01:01:10;;;;;;;9.07;1.30;;;;;;;;;;5418976;26;20514;-82
2024/04/15 01:03:36;;;;;;;5.90;1.47;;;;;;;;;;5419765;26;20456;-84
2024/04/15 01:06:02;;;;;;;6.33;1.13;;;;;;;;;;5420166;26;20443;-82
2024/04/15 01:08:28;;;;;;;6.13;0.90;;;;;;;;;;5417815;26;20448;-82
2024/04/15 01:10:54;;;;;;;8.60;1.53;;;;;;;;;;5418987;26;21021;-82
2024/04/15 01:13:20;;;;;;;8.53;1.40;;;;;;;;;;5417053;26;20445;-82
2024/04/15 01:15:46;;;;;;;10.27;1.57;;;;;;;;;;5418659;26;20780;-83
2024/04/15 01:18:12;;;;;;;6.50;1.93;;;;;;;;;;5418731;26;20556;-83
2024/04/15 01:20:38;;;;;;;13.57;1.10;;;;;;;;;;5417314;26;20547;-83
2024/04/15 01:23:05;;;;;;;6.80;1.40;;;;;;;;;;5417705;26;20472;-83
2024/04/15 01:25:31;;;;;;;8.33;1.67;;;;;;;;;;5413654;26;20514;-83
2024/04/15 01:27:57;;;;;;;5.47;0.80;;;;;;;;;;5391777;26;20445;-84
2024/04/15 01:30:23;;;;;;;6.93;0.70;;;;;;;;;;5385985;26;20503;-83
2024/04/15 01:32:50;;;;;;;6.53;1.47;;;;;;;;;;5382636;26;20449;-83
2024/04/15 01:35:19;;;;;;;9.70;1.90;;;;;;;;;;5394733;26;20523;-83
2024/04/15 01:37:45;;;;;;;5.40;1.10;;;;;;;;;;5382373;26;20984;-83
2024/04/15 01:40:11;;;;;;;5.77;1.20;;;;;;;;;;5383051;26;20505;-84
2024/04/15 01:42:37;;;;;;;7.87;0.83;;;;;;;;;;5382790;26;20777;-83
2024/04/15 01:45:03;;;;;;;10.77;1.17;;;;;;;;;;5382919;26;21044;-83
2024/04/15 01:47:29;;;;;;;10.60;1.40;;;;;;;;;;5382635;26;20440;-83
2024/04/15 01:49:55;;;;;;;7.20;0.90;;;;;;;;;;5382541;26;20448;-83
2024/04/15 01:52:21;;;;;;;8.83;1.43;;;;;;;;;;5382506;26;20964;-83
2024/04/15 01:54:47;;;;;;;9.43;1.77;;;;;;;;;;5380934;26;20272;-82
2024/04/15 01:57:13;;;;;;;5.60;1.33;;;;;;;;;;5383190;26;20899;-82
2024/04/15 01:59:39;;;;;;;4.60;0.60;;;;;;;;;;5383253;26;20462;-82
2024/04/15 02:02:05;;;;;;;4.53;0.80;;;;;;;;;;5383358;26;20547;-87
2024/04/15 02:04:31;;;;;;;5.37;0.90;;;;;;;;;;5407592;26;21035;-82
2024/04/15 02:06:57;;;;;;;5.70;1.57;;;;;;;;;;5415979;26;20987;-86
2024/04/15 02:09:23;;;;;;;6.57;1.30;;;;;;;;;;5416905;26;20573;-82
2024/04/15 02:11:49;;;;;;;4.50;1.47;;;;;;;;;;5417856;26;20448;-83
2024/04/15 02:14:15;;;;;;;5.40;1.07;;;;;;;;;;5415935;26;20453;-82
2024/04/15 02:16:41;;;;;;;7.00;0.70;;;;;;;;;;5418219;26;20495;-82
2024/04/15 02:19:06;;;;;;;3.53;0.90;;;;;;;;;;5418113;26;20499;-85
2024/04/15 02:21:32;;;;;;;4.87;1.10;;;;;;;;;;5417520;26;20505;-82
2024/04/15 02:23:58;;;;;;;7.27;1.60;;;;;;;;;;5408974;26;20573;-82
2024/04/15 02:26:24;;;;;;;7.53;1.17;;;;;;;;;;5380239;26;20474;-84
2024/04/15 02:28:50;;;;;;;7.07;1.00;;;;;;;;;;5381113;26;20468;-82
2024/04/15 02:31:16;;;;;;;9.13;1.47;;;;;;;;;;5382793;26;20796;-83
2024/04/15 02:33:42;;;;;;;5.40;1.50;;;;;;;;;;5382415;26;20443;-83
2024/04/15 02:36:08;;;;;;;4.97;1.17;;;;;;;;;;5382271;26;20459;-83
2024/04/15 02:38:34;;;;;;;7.60;1.30;;;;;;;;;;5382915;26;20935;-83
2024/04/15 02:40:59;;;;;;;7.67;1.17;;;;;;;;;;5382506;26;20497;-83
2024/04/15 02:43:25;;;;;;;11.27;1.60;;;;;;;;;;5410142;26;20514;-83
2024/04/15 02:45:51;;;;;;;7.50;1.07;;;;;;;;;;5415781;26;20530;-82
2024/04/15 02:48:17;;;;;;;7.33;1.43;;;;;;;;;;5417498;26;20523;-82
2024/04/15 02:50:43;;;;;;;8.20;1.30;;;;;;;;;;5417626;26;20576;-82
2024/04/15 02:53:09;;;;;;;11.50;1.53;;;;;;;;;;5411987;26;20454;-82
2024/04/15 02:55:35;;;;;;;9.03;1.10;;;;;;;;;;5417548;26;20814;-82
2024/04/15 02:58:01;;;;;;;6.70;1.30;;;;;;;;;;5417388;26;20531;-84
2024/04/15 03:00:27;;;;;;;4.13;1.90;;;;;;;;;;5415242;26;20465;-88
2024/04/15 03:02:53;;;;;;;7.40;2.00;;;;;;;;;;5415319;26;21064;-82
2024/04/15 03:05:20;;;;;;;6.97;0.87;;;;;;;;;;5413542;26;20474;-82
2024/04/15 03:07:49;;;;;;;7.10;0.97;;;;;;;;;;5416869;26;20517;-83
2024/04/15 03:10:15;;;;;;;8.17;1.40;;;;;;;;;;5417329;26;20527;-82
2024/04/15 03:12:41;;;;;;;5.00;1.37;;;;;;;;;;5417146;26;20466;-83
2024/04/15 03:15:06;;;;;;;5.93;1.90;;;;;;;;;;5415575;26;20580;-84
2024/04/15 03:17:32;;;;;;;5.63;1.30;;;;;;;;;;5418780;26;20473;-80
2024/04/15 03:19:58;;;;;;;3.40;1.13;;;;;;;;;;5420526;26;20589;-82
2024/04/15 03:22:24;;;;;;;3.83;1.27;;;;;;;;;;5420016;26;20690;-81
2024/04/15 03:24:50;;;;;;;7.40;1.07;;;;;;;;;;5420825;26;20464;-82
2024/04/15 03:27:17;;;;;;;4.70;1.10;;;;;;;;;;5420333;26;20536;-81
2024/04/15 03:29:43;;;;;;;4.67;0.83;;;;;;;;;;5419923;26;20468;-81
2024/04/15 03:32:09;;;;;;;7.27;1.67;;;;;;;;;;5420224;26;20458;-84
2024/04/15 03:34:35;;;;;;;5.00;1.27;;;;;;;;;;5418155;26;20514;-83
2024/04/15 03:37:01;;;;;;;10.67;1.67;;;;;;;;;;5417780;26;20476;-84
2024/04/15 03:39:27;;;;;;;4.03;1.30;;;;;;;;;;5417991;26;21062;-83
2024/04/15 03:41:53;;;;;;;5.93;0.77;;;;;;;;;;5420162;26;20575;-85
2024/04/15 03:44:19;;;;;;;7.20;1.23;;;;;;;;;;5418210;26;20469;-83
2024/04/15 03:46:45;;;;;;;1.87;0.60;;;;;;;;;;5419921;26;20460;-84
2024/04/15 03:49:11;;;;;;;2.80;1.00;;;;;;;;;;5420397;26;20475;-83
2024/04/15 03:51:37;;;;;;;5.23;1.47;;;;;;;;;;5417771;26;20520;-81
2024/04/15 03:54:03;;;;;;;8.80;1.60;;;;;;;;;;5417587;26;20464;-84
2024/04/15 03:56:29;;;;;;;3.23;1.40;;;;;;;;;;5410171;26;20511;-87
2024/04/15 03:58:55;;;;;;;6.60;1.80;;;;;;;;;;5419914;26;20457;-84
2024/04/15 04:01:21;;;;;;;3.20;0.83;;;;;;;;;;5420422;26;20462;-90
2024/04/15 04:03:47;;;;;;;8.00;1.37;;;;;;;;;;5420470;26;20461;-84
2024/04/15 04:06:12;;;;;;;5.90;0.80;;;;;;;;;;5420291;26;20462;-84
2024/04/15 04:08:39;;;;;;;7.30;0.73;;;;;;;;;;5420193;26;20456;-83
2024/04/15 04:11:06;;;;;;;4.93;1.30;;;;;;;;;;5420734;26;20563;-84
2024/04/15 04:13:35;;;;;;;4.77;1.13;;;;;;;;;;5420890;26;20454;-91
2024/04/15 04:16:01;;;;;;;3.00;0.70;;;;;;;;;;5420119;26;20474;-82
2024/04/15 04:18:27;;;;;;;4.27;1.07;;;;;;;;;;5418324;26;20468;-83
2024/04/15 04:20:53;;;;;;;4.73;1.17;;;;;;;;;;5419457;26;20477;-82
2024/04/15 04:23:19;;;;;;;5.33;1.63;;;;;;;;;;5419729;26;20821;-83
2024/04/15 04:25:45;;;;;;;2.67;0.93;;;;;;;;;;5419976;26;20476;-82
2024/04/15 04:28:10;;;;;;;6.40;0.80;;;;;;;;;;5419729;26;20889;-82
2024/04/15 04:30:36;;;;;;;5.47;0.97;;;;;;;;;;5419871;26;20585;-83
2024/04/15 04:33:03;;;;;;;2.60;1.40;;;;;;;;;;5419894;26;20548;-82
2024/04/15 04:35:37;;;;;;;4.00;1.17;;;;;;;;;;5419736;26;20511;-88
2024/04/15 04:38:03;;;;;;;3.73;0.90;;;;;;;;;;5418144;26;20839;-84
2024/04/15 04:40:29;;;;;;;8.30;2.33;;;;;;;;;;5419736;26;20465;-83
2024/04/15 04:42:54;;;;;;;5.70;1.90;;;;;;;;;;5421083;26;20843;-82
2024/04/15 04:45:20;;;;;;;4.50;1.80;;;;;;;;;;5418337;26;20482;-81
2024/04/15 04:47:46;;;;;;;6.70;1.37;;;;;;;;;;5419660;26;20511;-82
2024/04/15 04:50:12;;;;;;;6.90;0.70;;;;;;;;;;5420349;26;20469;-82
2024/04/15 04:52:38;;;;;;;6.17;1.80;;;;;;;;;;5419315;26;20591;-84
2024/04/15 04:55:05;;;;;;;10.63;1.17;;;;;;;;;;5419516;26;20513;-82
2024/04/15 04:57:31;;;;;;;7.77;1.40;;;;;;;;;;5415293;26;20975;-92
2024/04/15 04:59:57;;;;;;;10.73;2.23;;;;;;;;;;5419537;26;20517;-86
2024/04/15 05:02:24;;;;;;;4.23;0.63;;;;;;;;;;5419753;26;20533;-82
2024/04/15 05:04:50;;;;;;;5.00;1.20;;;;;;;;;;5416154;26;20473;-83
2024/04/15 05:07:16;;;;;;;6.83;1.27;;;;;;;;;;5419471;26;20587;-89
2024/04/15 05:09:42;;;;;;;5.53;1.73;;;;;;;;;;5420257;26;20460;-80
2024/04/15 05:12:08;;;;;;;3.53;1.17;;;;;;;;;;5420497;26;21048;-85
2024/04/15 05:14:34;;;;;;;9.23;1.20;;;;;;;;;;5417418;26;20505;-84
2024/04/15 05:17:00;;;;;;;9.03;1.60;;;;;;;;;;5419416;26;20517;-81
2024/04/15 05:19:26;;;;;;;6.53;1.20;;;;;;;;;;5418677;26;20581;-80
2024/04/15 05:21:52;;;;;;;5.53;1.30;;;;;;;;;;5418852;26;20794;-83
2024/04/15 05:24:18;;;;;;;11.20;2.67;;;;;;;;;;5418295;26;20519;-84
2024/04/15 05:26:44;;;;;;;7.30;1.37;;;;;;;;;;5419903;26;20698;-83
2024/04/15 05:29:10;;;;;;;7.40;1.90;;;;;;;;;;5414085;26;20520;-83
2024/04/15 05:31:36;;;;;;;6.73;1.07;;;;;;;;;;5418052;26;20474;-88
2024/04/15 05:34:03;;;;;;;4.87;1.10;;;;;;;;;;5416674;26;20523;-83
2024/04/15 05:36:29;;;;;;;6.40;1.20;;;;;;;;;;5416691;26;20881;-83
2024/04/15 05:38:54;;;;;;;8.67;1.93;;;;;;;;;;5417072;26;20463;-83
2024/04/15 05:41:20;;;;;;;6.03;2.23;;;;;;;;;;5416467;26;20547;-89
2024/04/15 05:43:46;;;;;;;10.50;1.30;;;;;;;;;;5416304;26;20833;-87
2024/04/15 05:46:12;;;;;;;6.83;3.70;;;;;;;;;;5416408;26;20518;-83
2024/04/15 05:48:38;;;;;;;7.70;1.90;;;;;;;;;;5418270;26;20515;-92
2024/04/15 05:51:04;;;;;;;7.37;1.30;;;;;;;;;;5417952;26;20514;-82
2024/04/15 05:53:30;;;;;;;7.87;2.10;;;;;;;;;;5413041;26;20473;-84
2024/04/15 05:55:57;;;;;;;6.70;1.10;;;;;;;;;;5418059;26;21318;-82
2024/04/15 05:58:22;;;;;;;5.00;1.07;;;;;;;;;;5418197;26;20518;-84
2024/04/15 06:00:49;;;;;;;7.37;1.10;;;;;;;;;;5417628;26;20811;-83
2024/04/15 06:03:15;;;;;;;9.10;1.60;;;;;;;;;;5416128;26;20984;-83
2024/04/15 06:05:40;;;;;;;9.60;1.80;;;;;;;;;;5417280;26;20551;-82
2024/04/15 06:08:07;;;;;;;3.67;0.90;;;;;;;;;;5417911;26;20519;-83
2024/04/15 06:10:32;;;;;;;7.43;1.77;;;;;;;;;;5418467;26;20458;-83
2024/04/15 06:12:58;;;;;;;7.10;1.30;;;;;;;;;;5417782;26;20505;-83
2024/04/15 06:15:24;;;;;;;7.97;0.90;;;;;;;;;;5417825;26;20471;-83
2024/04/15 06:17:50;;;;;;;4.87;1.40;;;;;;;;;;5415647;26;20514;-81
2024/04/15 06:20:16;;;;;;;3.30;0.77;;;;;;;;;;5418484;26;20266;-88
2024/04/15 06:22:42;;;;;;;2.77;0.80;;;;;;;;;;5419105;26;20247;-91
2024/04/15 06:25:08;;;;;;;9.00;1.03;;;;;;;;;;5419713;26;20813;-81
2024/04/15 06:27:35;;;;;;;11.83;1.70;;;;;;;;;;5418135;26;20286;-82
2024/04/15 06:30:04;;;;;;;4.70;1.17;;;;;;;;;;5418652;26;20817;-88
2024/04/15 06:32:30;;;;;;;7.83;1.20;;;;;;;;;;5417664;26;20231;-83
2024/04/15 06:34:56;;;;;;;3.53;0.83;;;;;;;;;;5416505;26;20591;-81
2024/04/15 06:37:21;;;;;;;4.80;0.90;;;;;;;;;;5417184;26;20522;-82
2024/04/15 06:39:47;;;;;;;5.67;1.37;;;;;;;;;;5418232;26;20457;-80
2024/04/15 06:42:13;;;;;;;6.00;1.00;;;;;;;;;;5417650;26;20461;-81
2024/04/15 06:44:39;;;;;;;7.20;0.97;;;;;;;;;;5416252;26;20471;-80
2024/04/15 06:47:05;;;;;;;7.53;1.20;;;;;;;;;;5417485;26;20461;-81
2024/04/15 06:49:32;;;;;;;9.13;1.50;;;;;;;;;;5417565;26;20281;-81
2024/04/15 06:51:57;;;;;;;8.50;1.23;;;;;;;;;;5416488;26;20588;-80
2024/04/15 06:54:23;;;;;;;14.13;2.00;;;;;;;;;;5417719;26;20472;-88
2024/04/15 06:56:49;;;;;;;8.20;1.40;;;;;;;;;;5417709;26;21103;-82
2024/04/15 06:59:15;;;;;;;5.93;0.90;;;;;;;;;;5417805;26;20241;-81
2024/04/15 07:01:41;;;;;;;9.33;1.87;;;;;;;;;;5418010;26;20465;-83
2024/04/15 07:04:07;;;;;;;7.63;1.90;;;;;;;;;;5417460;26;20269;-83
2024/04/15 07:06:33;;;;;;;6.57;0.60;;;;;;;;;;5417225;26;20459;-82
2024/04/15 07:08:59;;;;;;;8.10;1.50;;;;;;;;;;5418405;26;20554;-87
2024/04/15 07:11:25;;;;;;;4.90;0.80;;;;;;;;;;5413834;26;20540;-82
2024/04/15 07:13:51;;;;;;;5.10;0.50;;;;;;;;;;5417343;26;20242;-82
2024/04/15 07:16:17;;;;;;;5.03;0.90;;;;;;;;;;5416709;26;20575;-82
2024/04/15 07:18:43;;;;;;;6.53;1.57;;;;;;;;;;5417115;26;20463;-84
2024/04/15 07:21:09;;;;;;;12.00;1.43;;;;;;;;;;5416477;26;21000;-85
2024/04/15 07:23:35;;;;;;;8.10;1.63;;;;;;;;;;5417291;26;20509;-81
2024/04/15 07:26:01;;;;;;;8.00;1.17;;;;;;;;;;5415396;26;20233;-90
2024/04/15 07:28:27;;;;;;;2.70;1.03;;;;;;;;;;5417420;26;20239;-82
2024/04/15 07:31:00;;;;;;;5.87;1.03;;;;;;;;;;5416954;26;20471;-82
2024/04/15 07:33:26;;;;;;;8.63;1.27;;;;;;;;;;5411378;26;21102;-83
2024/04/15 07:35:56;;;;;;;3.80;0.53;;;;;;;;;;5415946;26;20461;-83
2024/04/15 07:38:22;;;;;;;2.60;0.63;;;;;;;;;;5416094;26;20338;-83
2024/04/15 07:40:48;;;;;;;5.60;0.60;;;;;;;;;;5414161;26;20481;-84
2024/04/15 07:43:14;;;;;;;4.37;0.70;;;;;;;;;;5416047;26;20850;-83
2024/04/15 07:45:40;;;;;;;4.40;0.70;;;;;;;;;;5415941;26;20575;-83
2024/04/15 07:48:06;;;;;;;4.87;1.30;;;;;;;;;;5416059;26;20811;-83
2024/04/15 07:50:32;;;;;;;9.43;1.20;;;;;;;;;;5415431;26;20998;-82
2024/04/15 07:52:58;;;;;;;5.10;0.90;;;;;;;;;;5415538;26;20865;-84
2024/04/15 07:55:24;;;;;;;9.10;1.37;;;;;;;;;;5416261;26;20470;-85
2024/04/15 07:57:50;;;;;;;6.10;0.83;;;;;;;;;;5413955;26;21002;-84
2024/04/15 08:00:17;;;;;;;4.73;1.03;;;;;;;;;;5414159;26;20478;-88
2024/04/15 08:02:43;;;;;;;4.63;0.80;;;;;;;;;;5412141;26;20517;-85
2024/04/15 08:05:09;;;;;;;5.50;0.57;;;;;;;;;;5419070;26;20526;-85
2024/04/15 08:07:36;;;;;;;4.57;0.97;;;;;;;;;;5418387;26;20589;-83
2024/04/15 08:10:02;;;;;;;3.97;0.93;;;;;;;;;;5419983;26;20810;-88
2024/04/15 08:12:28;;;;;;;3.00;0.97;;;;;;;;;;5419877;26;20781;-88
2024/04/15 08:14:54;;;;;;;4.70;0.80;;;;;;;;;;5414676;26;20489;-88
2024/04/15 08:17:20;;;;;;;8.67;0.60;;;;;;;;;;5417308;26;20496;-88
2024/04/15 08:19:45;;;;;;;4.10;0.97;;;;;;;;;;5418392;26;20445;-88
2024/04/15 08:22:12;;;;;;;4.70;0.83;;;;;;;;;;5417826;26;20266;-88
2024/04/15 08:24:37;;;;;;;3.97;0.67;;;;;;;;;;5420183;26;20255;-89
2024/04/15 08:27:03;;;;;;;5.37;0.73;;;;;;;;;;5419885;26;20447;-88
2024/04/15 08:29:29;;;;;;;8.40;1.10;;;;;;;;;;5419600;26;20224;-91
2024/04/15 08:31:55;;;;;;;3.47;0.70;;;;;;;;;;5419713;26;20959;-88
2024/04/15 08:34:21;;;;;;;7.37;2.00;;;;;;;;;;5415909;26;20535;-83
2024/04/15 08:36:47;;;;;;;3.03;1.30;;;;;;;;;;5415680;26;20277;-83
2024/04/15 08:39:13;;;;;;;2.60;1.17;;;;;;;;;;5418732;26;20504;-82
2024/04/15 08:41:51;;;;;;;5.67;1.80;;;;;;;;;;5417400;26;20528;-86
2024/04/15 08:44:24;;;;;;;5.47;2.17;;;;;;;;;;5415416;26;20231;-89
2024/04/15 08:46:51;;;;;;;4.60;1.37;;;;;;;;;;5402343;26;20978;-83
2024/04/15 08:49:18;;;;;;;5.37;1.33;;;;;;;;;;5407519;26;20564;-83
2024/04/15 08:51:44;;;;;;;4.20;2.00;;;;;;;;;;5418569;26;20557;-84
2024/04/15 08:54:10;;;;;;;3.23;1.90;;;;;;;;;;5419336;26;20903;-83
2024/04/15 08:56:39;;;;;;;3.63;1.60;;;;;;;;;;5419427;26;20215;-82
2024/04/15 08:59:06;;;;;;;3.80;1.47;;;;;;;;;;5411477;26;20231;-84
2024/04/15 09:01:32;;;;;;;4.10;1.90;;;;;;;;;;5400785;26;20453;-81
2024/04/15 09:03:58;;;;;;;4.53;1.70;;;;;;;;;;5396921;26;20556;-82
2024/04/15 09:06:24;;;;;;;3.97;1.50;;;;;;;;;;5395493;26;20492;-85
2024/04/15 09:08:49;;;;;;;6.70;2.77;;;;;;;;;;5383284;26;20438;-83
2024/04/15 09:11:16;;;;;;;4.50;1.83;;;;;;;;;;5383064;26;20534;-85
2024/04/15 09:13:42;;;;;;;5.00;2.50;;;;;;;;;;5382736;26;20313;-83
2024/04/15 09:16:09;;;;;;;4.60;2.17;;;;;;;;;;5382799;26;20454;-83
2024/04/15 09:18:35;;;;;;;5.63;2.40;;;;;;;;;;5383073;26;20250;-89
2024/04/15 09:21:01;;;;;;;6.00;2.20;;;;;;;;;;5382345;26;20565;-83
2024/04/15 09:23:27;;;;;;;4.80;1.70;;;;;;;;;;5398421;26;20472;-81
2024/04/15 09:25:53;;;;;;;4.17;1.80;;;;;;;;;;5417487;26;21010;-87
2024/04/15 09:28:19;;;;;;;5.23;2.13;;;;;;;;;;5417416;26;20228;-87
2024/04/15 09:30:45;;;;;;;5.70;1.30;;;;;;;;;;5417879;26;20226;-85
2024/04/15 09:33:13;;;;;;;6.07;1.50;;;;;;;;;;5417597;26;20705;-85
2024/04/15 09:35:39;;;;;;;5.30;1.57;;;;;;;;;;5417124;26;20862;-82
2024/04/15 09:38:06;;;;;;;3.30;1.17;;;;;;;;;;5417669;26;20511;-84
2024/04/15 09:40:33;;;;;;;6.03;1.00;;;;;;;;;;5416183;26;20461;-82
2024/04/15 09:42:59;;;;;;;4.90;1.30;;;;;;;;;;5414495;26;20788;-86
2024/04/15 09:45:25;;;;;;;4.70;1.30;;;;;;;;;;5416706;26;20510;-87
2024/04/15 09:47:51;;;;;;;4.93;1.27;;;;;;;;;;5417718;26;20506;-85
2024/04/15 09:50:20;;;;;;;6.70;1.23;;;;;;;;;;5417395;26;20272;-85
2024/04/15 09:52:46;;;;;;;4.63;0.93;;;;;;;;;;5417670;26;20464;-86
2024/04/15 09:55:17;;;;;;;3.60;1.00;;;;;;;;;;5417077;26;20520;-86
2024/04/15 09:57:44;;;;;;;4.63;1.00;;;;;;;;;;5413816;26;20489;-85
2024/04/15 10:00:13;;;;;;;2.50;0.63;;;;;;;;;;5408671;26;20465;-87
2024/04/15 10:02:52;;;;;;;4.30;0.60;;;;;;;;;;5415978;26;20476;-88
2024/04/15 10:05:23;;;;;;;3.83;0.67;;;;;;;;;;5417241;26;20806;-85
2024/04/15 10:07:53;;;;;;;3.33;0.67;;;;;;;;;;5417683;26;20465;-85
2024/04/15 10:10:20;;;;;;;3.10;1.00;;;;;;;;;;5417692;26;20456;-86
2024/04/15 10:12:49;;;;;;;3.07;1.00;;;;;;;;;;5417519;26;20465;-86
2024/04/15 10:15:16;;;;;;;4.70;1.13;;;;;;;;;;5417540;26;20468;-86
2024/04/15 10:17:41;;;;;;;4.43;1.03;;;;;;;;;;5408197;26;20554;-86
2024/04/15 10:20:09;;;;;;;4.83;1.00;;;;;;;;;;5396510;26;20477;-84
2024/04/15 10:22:37;;;;;;;2.13;0.57;;;;;;;;;;5384833;26;20240;-86
2024/04/15 10:25:03;;;;;;;3.57;0.97;;;;;;;;;;5377447;26;20446;-83
2024/04/15 10:27:29;;;;;;;2.83;0.50;;;;;;;;;;5392495;26;20513;-82
2024/04/15 10:29:55;;;;;;;5.47;1.23;;;;;;;;;;5406115;26;20448;-81
2024/04/15 10:32:25;;;;;;;3.00;0.80;;;;;;;;;;5417681;26;20563;-84
2024/04/15 10:34:53;;;;;;;5.50;1.40;;;;;;;;;;5413883;26;20557;-83
2024/04/15 10:37:28;;;;;;;2.77;0.87;;;;;;;;;;5416498;26;20957;-86
2024/04/15 10:40:00;;;;;;;4.33;0.93;;;;;;;;;;5415613;26;20462;-85
2024/04/15 10:42:26;;;;;;;3.50;1.27;;;;;;;;;;5415963;26;20497;-89
2024/04/15 10:44:52;;;;;;;3.03;0.67;;;;;;;;;;5415620;26;20452;-84
2024/04/15 10:47:17;;;;;;;6.00;1.37;;;;;;;;;;5417692;26;20221;-85
2024/04/15 10:49:43;;;;;;;2.90;0.60;;;;;;;;;;5417069;26;21085;-83
2024/04/15 10:52:09;;;;;;;3.13;1.10;;;;;;;;;;5417489;26;20219;-82
2024/04/15 10:54:36;;;;;;;2.20;0.57;;;;;;;;;;5417532;26;20441;-84
2024/04/15 10:57:02;;;;;;;4.90;1.37;;;;;;;;;;5417527;26;20231;-83
2024/04/15 10:59:29;;;;;;;3.67;0.73;;;;;;;;;;5417478;26;20498;-84
2024/04/15 11:01:55;;;;;;;3.57;0.53;;;;;;;;;;5417206;26;20468;-85
2024/04/15 11:04:21;;;;;;;2.27;0.37;;;;;;;;;;5417468;26;20626;-84
2024/04/15 11:06:48;;;;;;;1.87;0.60;;;;;;;;;;5416854;26;20975;-82
2024/04/15 11:09:14;;;;;;;3.53;0.70;;;;;;;;;;5417244;26;20457;-84
2024/04/15 11:11:41;;;;;;;4.10;0.90;;;;;;;;;;5417149;26;20448;-83
2024/04/15 11:14:10;;;;;;;2.60;0.73;;;;;;;;;;5417101;26;20561;-84
2024/04/15 11:16:36;;;;;;;4.40;0.67;;;;;;;;;;5417147;26;20445;-82
2024/04/15 11:19:06;;;;;;;3.40;0.77;;;;;;;;;;5417105;26;20443;-83
2024/04/15 11:21:32;;;;;;;4.77;0.80;;;;;;;;;;5416686;26;20457;-83
2024/04/15 11:23:58;;;;;;;5.53;0.50;;;;;;;;;;5417071;26;20836;-84
2024/04/15 11:26:24;;;;;;;2.73;0.93;;;;;;;;;;5416896;26;20587;-81
2024/04/15 11:28:50;;;;;;;4.23;1.27;;;;;;;;;;5416839;26;20570;-84
2024/04/15 11:31:16;;;;;;;3.63;0.63;;;;;;;;;;5416525;26;20491;-82
2024/04/15 11:33:42;;;;;;;2.87;0.70;;;;;;;;;;5416669;26;20443;-83
2024/04/15 11:36:14;;;;;;;3.67;1.00;;;;;;;;;;5416523;26;20508;-83
2024/04/15 11:38:40;;;;;;;3.60;0.97;;;;;;;;;;5417300;26;20478;-83
2024/04/15 11:41:06;;;;;;;2.73;0.77;;;;;;;;;;5420324;26;20504;-83
2024/04/15 11:43:31;;;;;;;1.80;1.20;;;;;;;;;;5418425;26;20451;-86
2024/04/15 11:45:57;;;;;;;3.10;0.40;;;;;;;;;;5418371;26;20464;-83
2024/04/15 11:48:26;;;;;;;5.47;1.17;;;;;;;;;;5420299;26;20216;-85
2024/04/15 11:50:55;;;;;;;5.30;0.67;;;;;;;;;;5419589;26;20458;-82
2024/04/15 11:53:24;;;;;;;2.43;0.50;;;;;;;;;;5420012;26;20447;-82
2024/04/15 11:55:50;;;;;;;5.03;1.13;;;;;;;;;;5420034;26;20441;-82
2024/04/15 11:58:16;;;;;;;5.10;1.30;;;;;;;;;;5420225;26;20495;-83
2024/04/15 12:00:42;;;;;;;1.37;0.70;;;;;;;;;;5419963;26;20447;-85
2024/04/15 12:03:08;;;;;;;4.40;2.03;;;;;;;;;;5419855;26;20447;-82
2024/04/15 12:05:35;;;;;;;2.90;1.30;;;;;;;;;;5419287;26;20507;-82
2024/04/15 12:08:01;;;;;;;4.63;2.50;;;;;;;;;;5419862;26;20497;-84
2024/04/15 12:10:27;;;;;;;4.07;1.60;;;;;;;;;;5419839;26;20455;-84
2024/04/15 12:12:53;;;;;;;2.80;1.03;;;;;;;;;;5419827;26;21066;-83
2024/04/15 12:15:19;;;;;;;3.30;0.43;;;;;;;;;;5419698;26;20464;-83
2024/04/15 12:17:45;;;;;;;3.23;1.50;;;;;;;;;;5419691;26;20216;-83
2024/04/15 12:20:11;;;;;;;2.50;1.03;;;;;;;;;;5419334;26;20454;-82
2024/04/15 12:22:37;;;;;;;5.17;1.27;;;;;;;;;;5419622;26;20577;-80
2024/04/15 12:25:04;;;;;;;1.63;1.23;;;;;;;;;;5417699;26;20500;-81
2024/04/15 12:27:29;;;;;;;4.20;1.37;;;;;;;;;;5419454;26;20492;-82
2024/04/15 12:29:56;;;;;;;2.57;1.00;;;;;;;;;;5417677;26;20959;-83
2024/04/15 12:32:22;;;;;;;4.37;1.00;;;;;;;;;;5419507;26;20455;-84
2024/04/15 12:34:47;;;;;;;4.87;1.20;;;;;;;;;;5419097;26;20507;-84
2024/04/15 12:37:13;;;;;;;5.57;1.23;;;;;;;;;;5419492;26;20219;-82
2024/04/15 12:39:40;;;;;;;3.47;1.20;;;;;;;;;;5419404;26;20232;-84
2024/04/15 12:42:06;;;;;;;4.27;1.60;;;;;;;;;;5417601;26;20498;-83
2024/04/15 12:44:32;;;;;;;5.83;1.50;;;;;;;;;;5419317;26;20502;-82
2024/04/15 12:47:00;;;;;;;5.67;1.33;;;;;;;;;;5418719;26;20464;-83
2024/04/15 12:49:26;;;;;;;5.03;1.97;;;;;;;;;;5418161;26;20531;-84
2024/04/15 12:51:51;;;;;;;2.70;1.53;;;;;;;;;;5419163;26;20446;-81
2024/04/15 12:54:17;;;;;;;8.13;2.60;;;;;;;;;;5419099;26;20324;-81
2024/04/15 12:56:43;;;;;;;4.60;2.23;;;;;;;;;;5417253;26;20730;-81
2024/04/15 12:59:09;;;;;;;4.43;2.53;;;;;;;;;;5419300;26;20764;-84
2024/04/15 13:01:35;;;;;;;6.00;2.90;;;;;;;;;;5419090;26;20556;-84
2024/04/15 13:04:03;;;;;;;5.00;1.70;;;;;;;;;;5417273;26;20458;-82
2024/04/15 13:06:29;;;;;;;4.70;2.67;;;;;;;;;;5418615;26;20280;-84
2024/04/15 13:08:56;;;;;;;5.40;3.53;;;;;;;;;;5418884;26;20969;-80
2024/04/15 13:11:22;;;;;;;5.10;3.00;;;;;;;;;;5418975;26;20290;-84
2024/04/15 13:13:47;;;;;;;6.97;3.47;;;;;;;;;;5418894;26;20454;-82
2024/04/15 13:16:13;;;;;;;5.53;2.80;;;;;;;;;;5418855;26;20928;-84
2024/04/15 13:18:39;;;;;;;7.00;3.50;;;;;;;;;;5418838;26;20441;-84
2024/04/15 13:21:11;;;;;;;9.20;4.73;;;;;;;;;;5418313;26;20232;-82
2024/04/15 13:23:37;;;;;;;8.43;4.33;;;;;;;;;;5418739;26;20445;-83
2024/04/15 13:26:03;;;;;;;4.13;2.67;;;;;;;;;;5418639;26;20496;-83
2024/04/15 13:28:29;;;;;;;5.23;3.57;;;;;;;;;;5416898;26;20693;-83
2024/04/15 13:30:55;;;;;;;7.07;3.43;;;;;;;;;;5416789;26;20463;-84
2024/04/15 13:33:21;;;;;;;8.27;3.10;;;;;;;;;;5418957;26;20602;-85
2024/04/15 13:35:46;;;;;;;2.73;2.03;;;;;;;;;;5418334;26;20221;-86
2024/04/15 13:38:12;;;;;;;6.40;2.13;;;;;;;;;;5418547;26;20264;-81
2024/04/15 13:40:39;;;;;;;8.10;2.80;;;;;;;;;;5418516;26;20761;-86
2024/04/15 13:43:04;;;;;;;6.23;3.40;;;;;;;;;;5418464;26;20220;-86
2024/04/15 13:45:30;;;;;;;8.83;3.57;;;;;;;;;;5418467;26;20503;-83
2024/04/15 13:47:56;;;;;;;5.87;3.40;;;;;;;;;;5418551;26;20951;-83
2024/04/15 13:50:22;;;;;;;11.67;3.80;;;;;;;;;;5418040;26;20456;-85
2024/04/15 13:52:48;;;;;;;6.47;3.60;;;;;;;;;;5418132;26;20265;-83
2024/04/15 13:55:14;;;;;;;6.67;3.80;;;;;;;;;;5418565;26;20324;-83
2024/04/15 13:57:40;;;;;;;8.00;4.27;;;;;;;;;;5418453;26;20220;-85
2024/04/15 14:00:07;;;;;;;5.93;3.83;;;;;;;;;;5416767;26;20812;-85
2024/04/15 14:02:33;;;;;;;7.63;2.93;;;;;;;;;;5418223;26;20972;-85
2024/04/15 14:04:58;;;;;;;10.80;3.70;;;;;;;;;;5417703;26;20503;-83
2024/04/15 14:07:24;;;;;;;7.83;3.60;;;;;;;;;;5416361;26;21202;-85
2024/04/15 14:09:50;;;;;;;5.60;2.97;;;;;;;;;;5418133;26;20216;-81
2024/04/15 14:12:16;;;;;;;6.20;4.20;;;;;;;;;;5417666;26;20448;-87
2024/04/15 14:14:42;;;;;;;4.97;3.50;;;;;;;;;;5418067;26;20441;-85
2024/04/15 14:17:11;;;;;;;5.33;4.03;;;;;;;;;;5417790;26;20267;-84
2024/04/15 14:19:37;;;;;;;4.17;2.37;;;;;;;;;;5417623;26;20270;-85
2024/04/15 14:22:04;;;;;;;5.10;3.53;;;;;;;;;;5417995;26;20464;-85
2024/04/15 14:24:30;;;;;;;5.50;3.73;;;;;;;;;;5417854;26;20452;-83
2024/04/15 14:26:56;;;;;;;8.60;5.00;;;;;;;;;;5418042;26;20503;-86
2024/04/15 14:29:22;;;;;;;6.67;4.40;;;;;;;;;;5417467;26;20713;-86
2024/04/15 14:31:48;;;;;;;6.93;4.37;;;;;;;;;;5417586;26;20490;-86
2024/04/15 14:34:14;;;;;;;6.33;4.73;;;;;;;;;;5417056;26;20450;-83
2024/04/15 14:36:40;;;;;;;6.03;5.20;;;;;;;;;;5417392;26;20223;-83